createdAt,value
2022-09-03T00:01:00.961Z,101217.28
2022-09-03T00:03:33.162Z,101217.94
2022-09-03T00:06:07.460Z,101216.16
2022-09-03T00:08:38.972Z,101216.34
2022-09-03T00:11:13.346Z,101221.38
2022-09-03T00:13:43.784Z,101213.91
2022-09-03T00:16:15.039Z,101216.94
2022-09-03T00:18:45.719Z,101222.44
2022-09-03T00:21:15.131Z,101215.00
2022-09-03T00:23:45.622Z,101208.88
2022-09-03T00:26:22.965Z,101211.19
2022-09-03T00:28:52.458Z,101215.69
2022-09-03T00:31:24.434Z,101208.38
2022-09-03T00:33:53.756Z,101207.53
2022-09-03T00:36:24.570Z,101207.88
2022-09-03T00:38:52.239Z,101209.06
2022-09-03T00:41:26.480Z,101209.88
2022-09-03T00:44:02.011Z,101198.94
2022-09-03T00:46:38.466Z,101208.91
2022-09-03T00:49:20.977Z,101208.41
2022-09-03T00:51:52.667Z,101211.09
2022-09-03T00:54:27.121Z,101210.13
2022-09-03T00:56:57.259Z,101219.28
2022-09-03T00:59:30.921Z,101205.00
2022-09-03T01:02:05.983Z,101214.47
2022-09-03T01:04:40.001Z,101213.47
2022-09-03T01:07:15.874Z,101214.13
2022-09-03T01:09:49.069Z,101214.00
2022-09-03T01:12:20.174Z,101220.31
2022-09-03T01:14:56.280Z,101218.16
2022-09-03T01:17:31.216Z,101214.03
2022-09-03T01:20:13.697Z,101210.22
2022-09-03T01:22:52.969Z,101215.34
2022-09-03T01:25:31.200Z,101209.25
2022-09-03T01:28:13.533Z,101211.59
2022-09-03T01:30:47.256Z,101213.91
2022-09-03T01:33:20.760Z,101212.25
2022-09-03T01:35:49.489Z,101217.72
2022-09-03T01:38:21.949Z,101215.56
2022-09-03T01:40:57.608Z,101204.97
2022-09-03T01:43:39.220Z,101205.28
2022-09-03T01:46:14.067Z,101214.91
2022-09-03T01:48:47.130Z,101205.16
2022-09-03T01:51:19.540Z,101210.31
2022-09-03T01:53:55.468Z,101209.31
2022-09-03T01:56:39.030Z,101200.34
2022-09-03T01:59:10.657Z,101203.50
2022-09-03T02:01:41.173Z,101204.00
2022-09-03T02:04:15.393Z,101206.81
2022-09-03T02:06:44.660Z,101203.66
2022-09-03T02:09:12.238Z,101192.72
2022-09-03T02:11:40.181Z,101188.56
2022-09-03T02:14:09.644Z,101194.22
2022-09-03T02:16:37.313Z,101194.56
2022-09-03T02:19:06.851Z,101201.69
2022-09-03T02:21:36.928Z,101198.03
2022-09-03T02:24:04.919Z,101193.56
2022-09-03T02:26:32.520Z,101194.72
2022-09-03T02:29:00.681Z,101189.91
2022-09-03T02:31:29.934Z,101200.69
2022-09-03T02:33:58.532Z,101188.59
2022-09-03T02:36:29.120Z,101197.41
2022-09-03T02:38:56.655Z,101184.47
2022-09-03T02:41:27.312Z,101196.06
2022-09-03T02:43:57.946Z,101194.09
2022-09-03T02:46:28.766Z,101197.72
2022-09-03T02:48:57.660Z,101199.22
2022-09-03T02:51:25.187Z,101199.56
2022-09-03T02:53:54.466Z,101195.41
2022-09-03T02:56:26.854Z,101199.72
2022-09-03T02:58:54.504Z,101194.75
2022-09-03T03:01:24.089Z,101185.28
2022-09-03T03:03:51.887Z,101200.09
2022-09-03T03:06:21.448Z,101189.47
2022-09-03T03:08:49.799Z,101188.97
2022-09-03T03:11:18.385Z,101186.81
2022-09-03T03:13:46.629Z,101200.41
2022-09-03T03:16:15.080Z,101191.44
2022-09-03T03:18:42.679Z,101184.97
2022-09-03T03:21:11.447Z,101187.28
2022-09-03T03:23:40.673Z,101188.44
2022-09-03T03:26:09.486Z,101186.78
2022-09-03T03:28:37.402Z,101190.41
2022-09-03T03:31:08.719Z,101193.56
2022-09-03T03:33:36.612Z,101190.28
2022-09-03T03:36:08.023Z,101192.25
2022-09-03T03:38:35.727Z,101186.97
2022-09-03T03:41:09.105Z,101182.81
2022-09-03T03:43:36.629Z,101185.97
2022-09-03T03:46:05.298Z,101180.97
2022-09-03T03:48:33.028Z,101192.06
2022-09-03T03:51:01.605Z,101190.75
2022-09-03T03:53:29.169Z,101187.94
2022-09-03T03:55:57.104Z,101184.28
2022-09-03T03:58:26.321Z,101179.81
2022-09-03T04:00:54.165Z,101179.31
2022-09-03T04:03:22.049Z,101179.31
2022-09-03T04:05:56.563Z,101174.88
2022-09-03T04:08:24.369Z,101180.00
2022-09-03T04:10:52.004Z,101175.03
2022-09-03T04:13:19.560Z,101179.00
2022-09-03T04:15:48.442Z,101179.66
2022-09-03T04:18:16.045Z,101181.13
2022-09-03T04:20:44.181Z,101178.66
2022-09-03T04:23:12.710Z,101184.94
2022-09-03T04:25:41.841Z,101190.06
2022-09-03T04:28:09.362Z,101180.31
2022-09-03T04:30:38.269Z,101178.97
2022-09-03T04:33:07.367Z,101179.31
2022-09-03T04:35:43.983Z,101179.97
2022-09-03T04:38:11.513Z,101174.97
2022-09-03T04:40:39.257Z,101177.63
2022-09-03T04:43:06.795Z,101177.09
2022-09-03T04:45:34.458Z,101172.16
2022-09-03T04:48:02.760Z,101184.06
2022-09-03T04:50:35.533Z,101175.13
2022-09-03T04:53:07.800Z,101174.13
2022-09-03T04:55:36.298Z,101169.97
2022-09-03T04:58:03.936Z,101172.59
2022-09-03T05:00:31.914Z,101172.94
2022-09-03T05:03:01.215Z,101179.72
2022-09-03T05:05:28.860Z,101174.41
2022-09-03T05:08:01.765Z,101180.88
2022-09-03T05:10:29.297Z,101175.59
2022-09-03T05:13:00.538Z,101177.91
2022-09-03T05:15:28.156Z,101181.88
2022-09-03T05:17:59.150Z,101177.41
2022-09-03T05:20:27.905Z,101178.53
2022-09-03T05:22:55.553Z,101176.56
2022-09-03T05:25:24.542Z,101180.53
2022-09-03T05:27:52.071Z,101178.53
2022-09-03T05:30:22.741Z,101179.06
2022-09-03T05:32:50.255Z,101174.25
2022-09-03T05:35:17.866Z,101177.91
2022-09-03T05:37:45.555Z,101176.41
2022-09-03T05:40:13.098Z,101176.06
2022-09-03T05:42:42.020Z,101172.09
2022-09-03T05:45:10.865Z,101177.41
2022-09-03T05:47:39.541Z,101179.88
2022-09-03T05:50:08.737Z,101181.22
2022-09-03T05:52:36.716Z,101178.91
2022-09-03T05:55:04.540Z,101186.38
2022-09-03T05:57:32.362Z,101181.75
2022-09-03T06:00:01.562Z,101176.28
2022-09-03T06:02:29.320Z,101188.22
2022-09-03T06:04:57.687Z,101182.44
2022-09-03T06:07:27.249Z,101186.78
2022-09-03T06:09:54.778Z,101186.59
2022-09-03T06:12:22.415Z,101181.63
2022-09-03T06:14:49.968Z,101175.03
2022-09-03T06:17:18.873Z,101178.84
2022-09-03T06:19:46.401Z,101176.16
2022-09-03T06:22:13.984Z,101181.13
2022-09-03T06:24:41.563Z,101176.50
2022-09-03T06:27:09.111Z,101181.16
2022-09-03T06:29:37.023Z,101182.16
2022-09-03T06:32:05.001Z,101184.78
2022-09-03T06:34:33.969Z,101179.03
2022-09-03T06:37:01.710Z,101179.69
2022-09-03T06:39:29.473Z,101180.81
2022-09-03T06:41:56.992Z,101194.41
2022-09-03T06:44:35.335Z,101183.97
2022-09-03T06:47:02.885Z,101181.94
2022-09-03T06:49:31.896Z,101180.09
2022-09-03T06:52:00.788Z,101182.38
2022-09-03T06:54:28.401Z,101184.47
2022-09-03T06:56:55.973Z,101179.53
2022-09-03T06:59:23.590Z,101189.97
2022-09-03T07:01:51.254Z,101184.69
2022-09-03T07:04:20.386Z,101187.25
2022-09-03T07:06:48.148Z,101190.91
2022-09-03T07:09:18.959Z,101188.50
2022-09-03T07:11:49.693Z,101183.28
2022-09-03T07:14:18.555Z,101186.03
2022-09-03T07:16:47.014Z,101188.47
2022-09-03T07:19:14.737Z,101198.28
2022-09-03T07:21:46.746Z,101181.00
2022-09-03T07:24:18.542Z,101191.06
2022-09-03T07:26:47.029Z,101191.25
2022-09-03T07:29:15.921Z,101185.34
2022-09-03T07:31:44.470Z,101192.44
2022-09-03T07:34:13.315Z,101194.09
2022-09-03T07:36:42.938Z,101198.25
2022-09-03T07:39:11.674Z,101198.53
2022-09-03T07:41:42.699Z,101193.28
2022-09-03T07:44:10.446Z,101191.75
2022-09-03T07:46:39.723Z,101186.88
2022-09-03T07:49:07.518Z,101191.66
2022-09-03T07:51:35.998Z,101192.38
2022-09-03T07:54:05.643Z,101191.84
2022-09-03T07:56:35.109Z,101188.31
2022-09-03T07:59:04.786Z,101191.38
2022-09-03T08:01:33.736Z,101184.75
2022-09-03T08:04:01.794Z,101182.56
2022-09-03T08:06:30.870Z,101180.22
2022-09-03T08:09:04.557Z,101187.59
2022-09-03T08:11:33.292Z,101190.44
2022-09-03T08:14:02.716Z,101186.50
2022-09-03T08:16:32.376Z,101191.63
2022-09-03T08:19:00.520Z,101194.22
2022-09-03T08:21:28.352Z,101196.16
2022-09-03T08:24:02.402Z,101205.53
2022-09-03T08:26:30.950Z,101196.91
2022-09-03T08:28:58.692Z,101201.41
2022-09-03T08:31:27.922Z,101206.44
2022-09-03T08:33:57.869Z,101210.25
2022-09-03T08:36:26.881Z,101207.09
2022-09-03T08:38:55.858Z,101214.09
2022-09-03T08:41:30.195Z,101212.38
2022-09-03T08:44:05.783Z,101209.97
2022-09-03T08:46:36.844Z,101207.19
2022-09-03T08:49:06.504Z,101209.66
2022-09-03T08:51:38.519Z,101214.59
2022-09-03T08:54:07.268Z,101214.66
2022-09-03T08:56:38.099Z,101214.25
2022-09-03T08:59:05.876Z,101212.63
2022-09-03T09:01:39.224Z,101221.19
2022-09-03T09:04:13.659Z,101213.41
2022-09-03T09:06:44.083Z,101212.56
2022-09-03T09:09:19.429Z,101214.22
2022-09-03T09:11:55.343Z,101211.75
2022-09-03T09:14:28.060Z,101223.28
2022-09-03T09:17:00.791Z,101222.44
2022-09-03T09:19:40.586Z,101220.41
2022-09-03T09:22:10.149Z,101217.94
2022-09-03T09:24:41.218Z,101221.56
2022-09-03T09:27:12.817Z,101214.13
2022-09-03T09:29:43.000Z,101208.41
2022-09-03T09:32:13.615Z,101212.53
2022-09-03T09:34:42.573Z,101209.19
2022-09-03T09:37:13.204Z,101211.69
2022-09-03T09:39:41.004Z,101210.84
2022-09-03T09:42:09.585Z,101201.41
2022-09-03T09:44:37.591Z,101203.88
2022-09-03T09:47:06.738Z,101204.22
2022-09-03T09:49:35.601Z,101208.13
2022-09-03T09:52:06.140Z,101210.34
2022-09-03T09:54:33.682Z,101190.06
2022-09-03T09:57:03.649Z,101197.78
2022-09-03T09:59:31.794Z,101193.56
2022-09-03T10:02:09.189Z,101195.59
2022-09-03T10:04:37.690Z,101197.78
2022-09-03T10:07:24.243Z,101199.44
2022-09-03T10:10:02.375Z,101197.66
2022-09-03T10:12:34.771Z,101187.34
2022-09-03T10:15:07.530Z,101194.97
2022-09-03T10:17:41.880Z,101196.34
2022-09-03T10:20:38.918Z,101196.78
2022-09-03T10:23:10.904Z,101185.38
2022-09-03T10:25:41.509Z,101189.00
2022-09-03T10:28:13.282Z,101178.81
2022-09-03T10:30:50.185Z,101182.56
2022-09-03T10:33:20.198Z,101182.47
2022-09-03T10:35:53.191Z,101181.78
2022-09-03T10:38:28.442Z,101179.47
2022-09-03T10:41:02.557Z,101187.41
2022-09-03T10:43:41.816Z,101178.84
2022-09-03T10:46:11.676Z,101176.59
2022-09-03T10:48:43.122Z,101180.72
2022-09-03T10:51:15.221Z,101180.63
2022-09-03T10:53:54.466Z,101183.81
2022-09-03T10:56:26.079Z,101188.69
2022-09-03T10:59:03.765Z,101178.06
2022-09-03T11:01:35.551Z,101173.69
2022-09-03T11:04:15.220Z,101185.91
2022-09-03T11:06:48.314Z,101182.53
2022-09-03T11:09:20.124Z,101179.66
2022-09-03T11:11:50.537Z,101187.50
2022-09-03T11:14:26.133Z,101190.78
2022-09-03T11:16:56.496Z,101197.72
2022-09-03T11:19:28.264Z,101192.13
2022-09-03T11:21:55.976Z,101195.19
2022-09-03T11:24:27.701Z,101189.09
2022-09-03T11:26:58.976Z,101186.91
2022-09-03T11:29:32.374Z,101195.38
2022-09-03T11:32:02.416Z,101188.00
2022-09-03T11:34:32.909Z,101194.16
2022-09-03T11:37:18.663Z,101186.03
2022-09-03T11:39:54.639Z,101184.25
2022-09-03T11:42:36.032Z,101181.28
2022-09-03T11:45:15.240Z,101183.28
2022-09-03T11:47:43.882Z,101182.75
2022-09-03T11:50:20.668Z,101189.41
2022-09-03T11:52:49.143Z,101189.59
2022-09-03T11:55:38.378Z,101180.56
2022-09-03T11:58:13.329Z,101179.13
2022-09-03T12:00:44.525Z,101175.00
2022-09-03T12:03:15.883Z,101176.78
2022-09-03T12:05:48.189Z,101179.06
2022-09-03T12:08:43.560Z,101179.97
2022-09-03T12:11:22.024Z,101180.88
2022-09-03T12:13:52.428Z,101176.88
2022-09-03T12:16:26.407Z,101191.84
2022-09-03T12:18:55.492Z,101183.53
2022-09-03T12:21:23.109Z,101193.38
2022-09-03T12:23:52.804Z,101186.00
2022-09-03T12:26:28.019Z,101195.56
2022-09-03T12:28:57.217Z,101195.16
2022-09-03T12:31:28.113Z,101188.63
2022-09-03T12:33:59.006Z,101189.41
2022-09-03T12:36:27.081Z,101183.66
2022-09-03T12:39:11.417Z,101187.78
2022-09-03T12:41:54.738Z,101184.56
2022-09-03T12:44:27.010Z,101181.69
2022-09-03T12:49:49.390Z,101187.84
2022-09-03T12:52:19.336Z,101173.50
2022-09-03T12:54:50.760Z,101181.34
2022-09-03T12:57:21.723Z,101187.09
2022-09-03T12:59:50.520Z,101174.72
2022-09-03T13:02:19.829Z,101180.06
2022-09-03T13:04:47.958Z,101182.94
2022-09-03T13:07:21.232Z,101187.84
2022-09-03T13:09:49.369Z,101180.50
2022-09-03T13:12:30.217Z,101188.72
2022-09-03T13:14:58.917Z,101180.94
2022-09-03T13:17:41.566Z,101177.66
2022-09-03T13:20:16.083Z,101173.59
2022-09-03T13:22:58.635Z,101169.91
2022-09-03T13:25:29.736Z,101172.38
2022-09-03T13:28:08.767Z,101169.91
2022-09-03T13:30:44.271Z,101165.41
2022-09-03T13:33:17.617Z,101168.28
2022-09-03T13:35:48.519Z,101165.81
2022-09-03T13:38:23.960Z,101174.00
2022-09-03T13:40:56.494Z,101167.00
2022-09-03T13:43:30.930Z,101168.22
2022-09-03T13:46:00.324Z,101167.38
2022-09-03T13:48:49.389Z,101170.25
2022-09-03T13:51:19.627Z,101160.81
2022-09-03T13:53:53.357Z,101167.81
2022-09-03T13:56:27.385Z,101169.44
2022-09-03T13:58:58.303Z,101166.16
2022-09-03T14:01:28.370Z,101163.28
2022-09-03T14:03:58.032Z,101158.78
2022-09-03T14:06:33.081Z,101164.13
2022-09-03T14:09:05.441Z,101158.38
2022-09-03T14:11:36.110Z,101150.22
2022-09-03T14:14:10.462Z,101155.91
2022-09-03T14:16:42.165Z,101155.91
2022-09-03T14:19:12.377Z,101157.94
2022-09-03T14:21:43.720Z,101160.41
2022-09-03T14:24:15.159Z,101150.56
2022-09-03T14:26:51.128Z,101163.72
2022-09-03T14:29:22.029Z,101153.09
2022-09-03T14:31:58.898Z,101161.31
2022-09-03T14:34:33.526Z,101153.94
2022-09-03T14:37:06.042Z,101151.09
2022-09-03T14:39:34.836Z,101149.06
2022-09-03T14:42:23.805Z,101147.00
2022-09-03T14:44:57.419Z,101158.50
2022-09-03T14:47:31.050Z,101156.47
2022-09-03T14:50:09.959Z,101147.84
2022-09-03T14:52:56.964Z,101160.16
2022-09-03T14:55:34.353Z,101159.72
2022-09-03T14:58:10.897Z,101151.94
2022-09-03T15:00:47.219Z,101164.25
2022-09-03T15:03:23.067Z,101155.63
2022-09-03T15:05:56.279Z,101161.81
2022-09-03T15:08:40.295Z,101169.16
2022-09-03T15:11:14.596Z,101167.13
2022-09-03T15:13:46.187Z,101160.97
2022-09-03T15:16:22.539Z,101158.09
2022-09-03T15:19:01.780Z,101153.59
2022-09-03T15:21:36.064Z,101152.38
2022-09-03T15:24:07.295Z,101157.69
2022-09-03T15:26:48.214Z,101168.34
2022-09-03T15:29:28.112Z,101170.81
2022-09-03T15:32:03.564Z,101168.75
2022-09-03T15:34:44.563Z,101173.66
2022-09-03T15:37:14.506Z,101166.69
2022-09-03T15:39:45.230Z,101174.91
2022-09-03T15:42:18.390Z,101170.00
2022-09-03T15:44:48.816Z,101166.72
2022-09-03T15:47:40.061Z,101169.16
2022-09-03T15:50:27.323Z,101168.75
2022-09-03T15:52:57.476Z,101174.88
2022-09-03T15:55:27.503Z,101166.69
2022-09-03T15:58:09.414Z,101159.31
2022-09-03T16:00:45.051Z,101175.72
2022-09-03T16:03:20.434Z,101176.09
2022-09-03T16:05:55.325Z,101170.75
2022-09-03T16:08:25.621Z,101169.91
2022-09-03T16:11:01.680Z,101167.47
2022-09-03T16:13:35.939Z,101172.34
2022-09-03T16:16:05.129Z,101173.59
2022-09-03T16:18:38.256Z,101176.44
2022-09-03T16:21:08.632Z,101180.91
2022-09-03T16:23:39.223Z,101178.06
2022-09-03T16:26:12.034Z,101179.25
2022-09-03T16:28:50.240Z,101178.00
2022-09-03T16:31:26.221Z,101178.81
2022-09-03T16:34:00.039Z,101172.63
2022-09-03T16:36:33.772Z,101168.09
2022-09-03T16:39:03.994Z,101173.41
2022-09-03T16:41:36.167Z,101168.50
2022-09-03T16:44:09.986Z,101175.81
2022-09-03T16:46:44.387Z,101173.31
2022-09-03T16:49:23.391Z,101166.31
2022-09-03T16:51:55.014Z,101162.16
2022-09-03T16:54:36.988Z,101161.31
2022-09-03T16:57:12.814Z,101161.22
2022-09-03T16:59:58.390Z,101163.63
2022-09-03T17:02:46.602Z,101160.25
2022-09-03T17:05:21.761Z,101169.97
2022-09-03T17:08:05.025Z,101164.56
2022-09-03T17:10:37.258Z,101170.66
2022-09-03T17:13:15.131Z,101176.69
2022-09-03T17:15:47.193Z,101173.72
2022-09-03T17:18:22.848Z,101166.66
2022-09-03T17:20:59.642Z,101163.72
2022-09-03T17:23:38.100Z,101160.78
2022-09-03T17:26:08.389Z,101163.94
2022-09-03T17:28:44.504Z,101167.50
2022-09-03T17:31:16.986Z,101171.47
2022-09-03T17:33:50.998Z,101172.97
2022-09-03T17:36:24.371Z,101173.28
2022-09-03T17:39:26.325Z,101173.59
2022-09-03T17:41:54.762Z,101173.44
2022-09-03T17:44:30.819Z,101174.94
2022-09-03T17:47:06.808Z,101185.81
2022-09-03T17:49:41.993Z,101192.97
2022-09-03T17:52:20.879Z,101197.25
2022-09-03T17:54:49.762Z,101195.91
2022-09-03T17:57:19.911Z,101200.66
2022-09-03T17:59:52.623Z,101200.56
2022-09-03T18:02:26.697Z,101198.34
2022-09-03T18:04:57.157Z,101206.34
2022-09-03T18:07:30.543Z,101207.78
2022-09-03T18:10:04.976Z,101216.56
2022-09-03T18:12:40.098Z,101212.31
2022-09-03T18:15:10.739Z,101221.09
2022-09-03T18:17:40.267Z,101220.16
2022-09-03T18:20:26.629Z,101225.25
2022-09-03T18:23:21.145Z,101222.66
2022-09-03T18:26:08.841Z,101236.28
2022-09-03T18:28:56.586Z,101235.69
2022-09-03T18:31:41.897Z,101250.97
2022-09-03T18:34:27.621Z,101251.97
2022-09-03T18:37:15.724Z,101248.97
2022-09-03T18:40:02.997Z,101250.38
2022-09-03T18:42:58.206Z,101257.94
2022-09-03T18:46:28.069Z,101258.94
2022-09-03T18:48:55.172Z,101261.16
2022-09-03T18:51:45.528Z,101261.00
2022-09-03T18:55:06.638Z,101272.19
2022-09-03T18:57:58.346Z,101277.63
2022-09-03T19:00:46.058Z,101281.47
2022-09-03T19:03:42.453Z,101283.66
2022-09-03T19:06:35.906Z,101276.94
2022-09-03T19:09:24.773Z,101286.94
2022-09-03T19:12:17.556Z,101285.09
2022-09-03T19:15:07.713Z,101284.91
2022-09-03T19:18:02.107Z,101288.34
2022-09-03T19:20:47.863Z,101295.53
2022-09-03T19:23:33.045Z,101292.09
2022-09-03T19:26:21.840Z,101297.22
2022-09-03T19:29:10.135Z,101293.81
2022-09-03T19:32:02.211Z,101296.09
2022-09-03T19:35:07.799Z,101302.84
2022-09-03T19:37:55.631Z,101303.47
2022-09-03T19:40:52.399Z,101310.22
2022-09-03T19:43:43.975Z,101320.16
2022-09-03T19:46:33.799Z,101323.25
2022-09-03T19:49:26.854Z,101325.50
2022-09-03T19:52:18.488Z,101316.06
2022-09-03T19:55:03.848Z,101327.66
2022-09-03T19:57:49.629Z,101325.53
2022-09-03T20:00:34.944Z,101324.94
2022-09-03T20:03:20.727Z,101325.22
2022-09-03T20:06:11.064Z,101328.63
2022-09-03T20:08:56.303Z,101338.22
2022-09-03T20:11:25.477Z,101340.09
2022-09-03T20:14:10.655Z,101336.31
2022-09-03T20:16:41.541Z,101337.06
2022-09-03T20:19:15.072Z,101334.44
2022-09-03T20:21:49.417Z,101335.84
2022-09-03T20:24:28.172Z,101331.59
2022-09-03T20:27:02.181Z,101326.97
2022-09-03T20:29:44.964Z,101333.72
2022-09-03T20:32:15.475Z,101326.25
2022-09-03T20:34:47.897Z,101326.13
2022-09-03T20:37:24.749Z,101325.22
2022-09-03T20:40:00.283Z,101335.59
2022-09-03T20:42:36.106Z,101328.97
2022-09-03T20:45:09.696Z,101335.19
2022-09-03T20:47:46.130Z,101331.78
2022-09-03T20:50:20.706Z,101332.00
2022-09-03T20:52:53.250Z,101335.88
2022-09-03T20:55:22.338Z,101329.25
2022-09-03T20:57:54.053Z,101326.31
2022-09-03T21:00:23.182Z,101331.88
2022-09-03T21:03:23.982Z,101331.72
2022-09-03T21:05:56.174Z,101320.28
2022-09-03T21:08:33.033Z,101333.13
2022-09-03T21:11:06.282Z,101329.31
2022-09-03T21:13:40.227Z,101334.50
2022-09-03T21:16:22.827Z,101325.53
2022-09-03T21:18:56.289Z,101329.56
2022-09-03T21:21:27.287Z,101330.75
2022-09-03T21:24:00.069Z,101328.59
2022-09-03T21:26:30.344Z,101329.28
2022-09-03T21:29:03.345Z,101329.94
2022-09-03T21:31:38.439Z,101321.31
2022-09-03T21:34:09.624Z,101328.84
2022-09-03T21:36:38.219Z,101323.91
2022-09-03T21:39:10.469Z,101325.44
2022-09-03T21:41:41.488Z,101330.94
2022-09-03T21:44:12.896Z,101324.31
2022-09-03T21:46:42.531Z,101331.50
2022-09-03T21:49:11.256Z,101330.53
2022-09-03T21:51:42.494Z,101320.38
2022-09-03T21:54:14.593Z,101327.59
2022-09-03T21:56:57.010Z,101326.28
2022-09-03T21:59:32.269Z,101332.63
2022-09-03T22:02:04.414Z,101340.63
2022-09-03T22:04:32.068Z,101341.31
2022-09-03T22:07:05.205Z,101342.00
2022-09-03T22:09:37.586Z,101361.31
2022-09-03T22:12:09.690Z,101357.19
2022-09-03T22:14:41.567Z,101355.88
2022-09-03T22:17:12.372Z,101362.22
2022-09-03T22:19:40.219Z,101364.91
2022-09-03T22:22:11.108Z,101360.75
2022-09-03T22:24:43.538Z,101357.44
2022-09-03T22:27:19.212Z,101356.47
2022-09-03T22:29:53.052Z,101353.84
2022-09-03T22:32:28.009Z,101360.19
2022-09-03T22:35:14.714Z,101353.56
2022-09-03T22:37:49.726Z,101357.41
2022-09-03T22:40:25.156Z,101349.59
2022-09-03T22:43:01.805Z,101343.78
2022-09-03T22:45:47.143Z,101346.13
2022-09-03T22:48:22.133Z,101347.16
2022-09-03T22:50:53.574Z,101353.47
2022-09-03T22:53:26.897Z,101342.03
2022-09-03T22:56:00.434Z,101349.50
2022-09-03T22:58:30.741Z,101353.03
2022-09-03T23:01:04.010Z,101352.91
2022-09-03T23:03:36.977Z,101352.75
2022-09-03T23:06:07.021Z,101353.41
2022-09-03T23:08:40.183Z,101349.25
2022-09-03T23:11:10.893Z,101358.41
2022-09-03T23:13:41.788Z,101361.94
2022-09-03T23:16:12.507Z,101361.78
2022-09-03T23:18:42.489Z,101359.63
2022-09-03T23:21:21.373Z,101360.31
2022-09-03T23:23:53.944Z,101360.97
2022-09-03T23:26:27.992Z,101367.63
2022-09-03T23:29:00.074Z,101364.66
2022-09-03T23:31:28.240Z,101375.81
2022-09-03T23:33:56.127Z,101374.81
2022-09-03T23:36:55.009Z,101373.50
2022-09-03T23:39:24.538Z,101375.81
2022-09-03T23:42:01.043Z,101377.31
2022-09-03T23:44:33.817Z,101379.97
2022-09-03T23:47:10.566Z,101387.47
2022-09-03T23:49:43.036Z,101381.66
2022-09-03T23:52:20.748Z,101377.50
2022-09-03T23:54:49.634Z,101373.38
2022-09-03T23:57:24.539Z,101383.28
